LFBOLFBY

Guest
Details From LFBO - Toulouse Blagnac
To LFBY - Dax Seyresse
Flight Number -
Tags generated
Created
Modified
Stats Distance 106 nm / 196 km
Max Altitude 12,500 ft / 3,810 m
Waypoints 3
Social Downloads 0
Likes 0
Share VATSIM

Download

Looking for another format? Having issues loading an existing format? Contact us
Advertisement - Login to hide

Notes

Basic altitude profile: - Ascent Rate: 2500ft/min - Ascent Speed: 250kts - Cruise Altitude: 35000ft - Cruise Speed: 420kts - Descent Rate: 1500ft/min - Descent Speed: 250kts Options: - Use NATs: yes - Use PACOTS: yes - Use low airways: yes - Use high airways: yes

Route

LFBO AUCHE LFBY

ID Type Via Altitude Latitude Longitude Leg Dist Tot Dist Heading (true) Name
O LFBO APT - 0 ft / 0 m 43.62903˚ 1.36397˚ - 0 nm - Toulouse Blagnac
AUCHE FIX - 12,500 ft / 3,810 m 43.65139˚ 0.55833˚ 35 nm 35 nm 272° / 272° -
O LFBY APT - 0 ft / 0 m 43.69000˚ -1.06700˚ 70 nm 105 nm 272° / 271° Dax Seyresse

Altitude Profile

Advertisement - Login to hide

LFBO

Details ICAO LFBO (TLS)
Name Toulouse Blagnac
Region France
Timezone Europe/Paris (UTC+1.0)
Stats Elevation 499 ft / 152 m (AMSL)
Location 43.629026° 1.363969°
Runways 2
Magnetic Variation 0.575° E

METAR

LFBO 171930Z AUTO 27009KT 9999 SCT027 BKN035 BKN043 07/04 Q1031 TEMPO BKN012

Decode

TAF

TAF LFBO 171700Z 1718/1824 27008KT 9999 BKN020 PROB40 TEMPO 1718/1802 BKN012 PROB30 TEMPO 1718/1722 -RA BECMG 1803/1805 BKN033 PROB40 TEMPO 1803/1807 -RA BKN018 TEMPO 1812/1818 29020G35KT RA BKN012 BECMG 1819/1821 33006KT CAVOK

Decode

Departure Runways

ID Width Length Bearing (true) Bearing (mag) Surface Threshold Offset Overrun Length
14L 148 ft / 45 m 9,923 ft / 3,025 m 143.00° 142.42° Asphalt 0 ft / 0 m 0 ft / 0 m
14R 148 ft / 45 m 11,484 ft / 3,500 m 142.99° 142.41° Asphalt 0 ft / 0 m 295 ft / 90 m
32L 148 ft / 45 m 11,484 ft / 3,500 m 323.01° 322.43° Asphalt 0 ft / 0 m 197 ft / 60 m
32R 148 ft / 45 m 9,923 ft / 3,025 m 323.02° 322.44° Asphalt 0 ft / 0 m 0 ft / 0 m

LFBY

Details ICAO LFBY
Name Dax Seyresse
Region France
Timezone Europe/Paris (UTC+1.0)
Stats Elevation 108 ft / 33 m (AMSL)
Location 43.689995° -1.066997°
Runways 1
Magnetic Variation 0.104° W

METAR

LFBY 171930Z AUTO VRB01KT 4700 // SCT036 BKN042 BKN050 07/06 Q1033

Decode

TAF

Not found

Destination Runways

ID Width Length Bearing (true) Bearing (mag) Surface Threshold Offset Overrun Length
08 98 ft / 30 m 2,462 ft / 751 m 74.00° 74.10° Dirt 0 ft / 0 m 0 ft / 0 m
26 98 ft / 30 m 2,462 ft / 751 m 254.00° 254.10° Dirt 0 ft / 0 m 0 ft / 0 m